createdAt,value
2018-09-27T00:01:04.040Z,0.68
2018-09-27T00:03:33.823Z,0.72
2018-09-27T00:06:03.532Z,0.80
2018-09-27T00:08:33.118Z,0.80
2018-09-27T00:11:02.955Z,0.80
2018-09-27T00:13:32.593Z,0.70
2018-09-27T00:16:02.134Z,0.80
2018-09-27T00:18:31.871Z,0.75
2018-09-27T00:21:02.222Z,0.80
2018-09-27T00:23:31.779Z,0.57
2018-09-27T00:26:01.468Z,0.50
2018-09-27T00:28:31.219Z,0.80
2018-09-27T00:31:01.218Z,0.78
2018-09-27T00:33:30.897Z,0.78
2018-09-27T00:36:01.566Z,0.68
2018-09-27T00:38:31.737Z,0.62
2018-09-27T00:41:01.644Z,0.42
2018-09-27T00:43:31.999Z,0.62
2018-09-27T00:46:01.845Z,0.62
2018-09-27T00:48:31.441Z,0.60
2018-09-27T00:51:02.023Z,0.70
2018-09-27T00:53:31.993Z,0.60
2018-09-27T00:56:01.528Z,0.55
2018-09-27T00:58:32.391Z,0.50
2018-09-27T01:01:02.655Z,0.75
2018-09-27T01:03:32.753Z,0.68
2018-09-27T01:06:02.713Z,0.40
2018-09-27T01:08:32.871Z,0.70
2018-09-27T01:11:02.515Z,0.60
2018-09-27T01:13:33.011Z,0.60
2018-09-27T01:16:02.906Z,0.62
2018-09-27T01:18:32.419Z,0.50
2018-09-27T01:21:02.660Z,0.78
2018-09-27T01:23:32.214Z,0.80
2018-09-27T01:26:01.975Z,0.70
2018-09-27T01:28:31.535Z,0.60
2018-09-27T01:31:01.003Z,0.53
2018-09-27T01:33:31.296Z,0.60
2018-09-27T01:36:00.866Z,0.55
2018-09-27T01:38:30.348Z,0.60
2018-09-27T01:40:59.882Z,0.50
2018-09-27T01:43:29.584Z,0.70
2018-09-27T01:45:59.084Z,0.70
2018-09-27T01:48:28.622Z,0.70
2018-09-27T01:50:58.284Z,0.57
2018-09-27T01:53:27.827Z,0.60
2018-09-27T01:55:57.510Z,0.60
2018-09-27T01:58:27.367Z,0.60
2018-09-27T02:00:57.280Z,0.50
2018-09-27T02:03:27.134Z,0.55
2018-09-27T02:05:56.699Z,0.75
2018-09-27T02:08:27.136Z,0.72
2018-09-27T02:10:56.676Z,0.50
2018-09-27T02:13:26.174Z,0.82
2018-09-27T02:15:55.910Z,0.72
2018-09-27T02:18:25.560Z,0.70
2018-09-27T02:20:55.357Z,0.90
2018-09-27T02:23:25.214Z,0.80
2018-09-27T02:25:54.995Z,0.70
2018-09-27T02:28:24.619Z,0.55
2018-09-27T02:30:54.811Z,0.68
2018-09-27T02:33:25.252Z,0.50
2018-09-27T02:35:55.506Z,0.70
2018-09-27T02:38:25.343Z,0.50
2018-09-27T02:40:54.940Z,0.80
2018-09-27T02:43:24.524Z,0.80
2018-09-27T02:45:54.468Z,0.68
2018-09-27T02:48:24.205Z,0.80
2018-09-27T02:50:53.982Z,0.60
2018-09-27T02:53:24.691Z,0.70
2018-09-27T02:55:54.545Z,0.80
2018-09-27T02:58:24.786Z,0.60
2018-09-27T03:00:55.181Z,0.65
2018-09-27T03:03:24.993Z,0.72
2018-09-27T03:05:54.846Z,0.40
2018-09-27T03:08:24.569Z,0.50
2018-09-27T03:10:54.965Z,0.60
2018-09-27T03:13:24.601Z,0.90
2018-09-27T03:15:54.394Z,0.70
2018-09-27T03:18:23.984Z,0.80
2018-09-27T03:20:53.632Z,0.88
2018-09-27T03:23:23.509Z,0.60
2018-09-27T03:25:53.330Z,0.60
2018-09-27T03:28:23.978Z,0.50
2018-09-27T03:30:53.918Z,0.60
2018-09-27T03:33:23.652Z,0.80
2018-09-27T03:35:55.329Z,0.95
2018-09-27T03:38:25.721Z,0.68
2018-09-27T03:40:55.382Z,0.72
2018-09-27T03:43:24.862Z,0.60
2018-09-27T03:45:54.956Z,0.60
2018-09-27T03:48:24.625Z,0.70
2018-09-27T03:50:54.747Z,0.65
2018-09-27T03:53:24.495Z,0.88
2018-09-27T03:55:54.496Z,0.50
2018-09-27T03:58:25.933Z,0.68
2018-09-27T04:00:57.042Z,0.42
2018-09-27T04:03:28.030Z,0.68
2018-09-27T04:05:57.679Z,0.55
2018-09-27T04:08:27.458Z,0.55
2018-09-27T04:10:57.658Z,0.70
2018-09-27T04:13:28.316Z,0.78
2018-09-27T04:15:58.532Z,0.68
2018-09-27T04:18:28.429Z,0.60
2018-09-27T04:21:00.010Z,0.90
2018-09-27T04:23:29.547Z,0.60
2018-09-27T04:25:59.097Z,0.70
2018-09-27T04:28:29.852Z,0.60
2018-09-27T04:31:00.897Z,0.70
2018-09-27T04:33:32.736Z,0.88
2018-09-27T04:36:02.992Z,0.78
2018-09-27T04:38:33.426Z,0.70
2018-09-27T04:41:03.765Z,0.60
2018-09-27T04:43:34.459Z,0.53
2018-09-27T04:46:04.528Z,0.80
2018-09-27T04:48:34.369Z,0.70
2018-09-27T04:51:03.970Z,0.70
2018-09-27T04:53:33.949Z,0.75
2018-09-27T04:56:03.720Z,0.88
2018-09-27T04:58:33.571Z,0.90
2018-09-27T05:01:03.192Z,0.70
2018-09-27T05:03:33.813Z,0.75
2018-09-27T05:06:03.405Z,0.60
2018-09-27T05:08:32.923Z,0.78
2018-09-27T05:11:03.445Z,0.80
2018-09-27T05:13:33.235Z,0.70
2018-09-27T05:16:04.157Z,0.70
2018-09-27T05:18:34.009Z,0.70
2018-09-27T05:21:04.305Z,0.82
2018-09-27T05:23:34.325Z,0.72
2018-09-27T05:26:05.029Z,1.00
2018-09-27T05:28:35.771Z,0.90
2018-09-27T05:31:05.438Z,0.90
2018-09-27T05:33:34.978Z,0.70
2018-09-27T05:36:04.755Z,0.90
2018-09-27T05:38:34.710Z,0.70
2018-09-27T05:41:04.362Z,0.90
2018-09-27T05:43:34.243Z,0.70
2018-09-27T05:46:03.852Z,0.85
2018-09-27T05:48:33.542Z,0.85
2018-09-27T05:51:03.232Z,0.82
2018-09-27T05:53:33.827Z,1.00
2018-09-27T05:56:03.749Z,0.78
2018-09-27T05:58:33.316Z,1.10
2018-09-27T06:01:02.975Z,0.78
2018-09-27T06:03:33.111Z,1.10
2018-09-27T06:06:03.132Z,0.80
2018-09-27T06:08:32.674Z,0.90
2018-09-27T06:11:02.834Z,0.98
2018-09-27T06:13:32.541Z,0.90
2018-09-27T06:16:02.262Z,1.17
2018-09-27T06:18:32.063Z,1.25
2018-09-27T06:21:02.649Z,1.40
2018-09-27T06:23:32.295Z,0.88
2018-09-27T06:26:02.392Z,1.30
2018-09-27T06:28:32.008Z,1.25
2018-09-27T06:31:01.577Z,1.15
2018-09-27T06:33:33.315Z,0.80
2018-09-27T06:36:03.778Z,0.90
2018-09-27T06:38:33.365Z,1.20
2018-09-27T06:41:03.081Z,1.17
2018-09-27T06:43:32.905Z,1.12
2018-09-27T06:46:02.772Z,1.20
2018-09-27T06:48:32.689Z,0.90
2018-09-27T06:51:02.400Z,1.02
2018-09-27T06:53:31.916Z,1.07
2018-09-27T06:56:01.820Z,1.10
2018-09-27T06:58:32.146Z,0.98
2018-09-27T07:01:01.777Z,0.98
2018-09-27T07:03:31.420Z,1.15
2018-09-27T07:06:02.516Z,1.02
2018-09-27T07:08:32.108Z,0.95
2018-09-27T07:11:01.895Z,0.90
2018-09-27T07:13:34.614Z,1.00
2018-09-27T07:16:04.169Z,1.10
2018-09-27T07:18:33.801Z,0.85
2018-09-27T07:21:03.446Z,1.00
2018-09-27T07:23:34.554Z,1.05
2018-09-27T07:26:04.381Z,0.93
2018-09-27T07:28:33.884Z,0.90
2018-09-27T07:31:03.379Z,1.05
2018-09-27T07:33:33.592Z,0.90
2018-09-27T07:36:03.197Z,1.10
2018-09-27T07:38:32.612Z,1.20
2018-09-27T07:41:02.069Z,1.10
2018-09-27T07:43:32.373Z,0.90
2018-09-27T07:46:02.302Z,1.10
2018-09-27T07:48:32.675Z,0.88
2018-09-27T07:51:02.189Z,1.12
2018-09-27T07:53:33.469Z,0.98
2018-09-27T07:56:03.561Z,1.07
2018-09-27T07:58:32.978Z,0.85
2018-09-27T08:01:02.527Z,1.12
2018-09-27T08:03:32.028Z,1.07
2018-09-27T08:06:01.497Z,1.05
2018-09-27T08:08:31.171Z,1.10
2018-09-27T08:11:00.699Z,1.00
2018-09-27T08:13:30.282Z,1.00
2018-09-27T08:15:59.753Z,1.00
2018-09-27T08:18:29.394Z,1.15
2018-09-27T08:20:59.795Z,1.30
2018-09-27T08:23:29.401Z,1.20
2018-09-27T08:25:58.989Z,0.80
2018-09-27T08:28:28.378Z,1.27
2018-09-27T08:30:58.145Z,1.35
2018-09-27T08:33:27.750Z,0.90
2018-09-27T08:35:57.200Z,0.82
2018-09-27T08:38:26.872Z,1.20
2018-09-27T08:40:56.378Z,0.98
2018-09-27T08:43:26.005Z,1.00
2018-09-27T08:45:56.209Z,1.25
2018-09-27T08:48:25.825Z,1.30
2018-09-27T08:50:55.395Z,1.20
2018-09-27T08:53:24.982Z,1.35
2018-09-27T08:55:54.651Z,1.47
2018-09-27T08:58:24.602Z,1.00
2018-09-27T09:00:54.500Z,1.30
2018-09-27T09:03:24.006Z,0.90
2018-09-27T09:05:53.492Z,1.05
2018-09-27T09:08:23.642Z,1.30
2018-09-27T09:10:53.421Z,1.17
2018-09-27T09:13:23.267Z,1.30
2018-09-27T09:15:55.123Z,1.92
2018-09-27T09:18:24.789Z,1.30
2018-09-27T09:20:54.473Z,1.37
2018-09-27T09:23:24.750Z,1.50
2018-09-27T09:25:55.166Z,1.10
2018-09-27T09:28:24.837Z,1.22
2018-09-27T09:30:54.374Z,0.95
2018-09-27T09:33:24.367Z,1.12
2018-09-27T09:35:53.993Z,1.00
2018-09-27T09:38:24.208Z,1.30
2018-09-27T09:40:54.123Z,0.98
2018-09-27T09:43:23.711Z,0.95
2018-09-27T09:45:53.110Z,1.10
2018-09-27T09:48:22.648Z,0.93
2018-09-27T09:50:52.909Z,1.40
2018-09-27T09:53:22.893Z,1.07
2018-09-27T09:55:52.805Z,1.00
2018-09-27T09:58:22.329Z,1.30
2018-09-27T10:00:52.244Z,1.20
2018-09-27T10:03:21.948Z,1.05
2018-09-27T10:05:51.904Z,0.85
2018-09-27T10:08:21.476Z,0.95
2018-09-27T10:10:50.995Z,1.17
2018-09-27T10:13:20.752Z,1.05
2018-09-27T10:15:50.298Z,1.07
2018-09-27T10:18:22.240Z,1.05
2018-09-27T10:20:51.878Z,1.17
2018-09-27T10:23:21.573Z,1.20
2018-09-27T10:25:51.514Z,1.20
2018-09-27T10:28:21.347Z,1.17
2018-09-27T10:30:51.306Z,1.72
2018-09-27T10:33:21.916Z,1.70
2018-09-27T10:35:51.804Z,1.52
2018-09-27T10:38:21.363Z,1.30
2018-09-27T10:40:51.574Z,1.12
2018-09-27T10:43:21.240Z,1.32
2018-09-27T10:45:51.426Z,1.20
2018-09-27T10:48:21.076Z,1.20
2018-09-27T10:50:51.031Z,1.10
2018-09-27T10:53:20.769Z,1.10
2018-09-27T10:55:50.749Z,0.90
2018-09-27T10:58:20.672Z,1.40
2018-09-27T11:00:51.041Z,1.30
2018-09-27T11:03:20.801Z,1.00
2018-09-27T11:05:50.587Z,0.98
2018-09-27T11:08:20.410Z,1.15
2018-09-27T11:10:51.114Z,1.47
2018-09-27T11:13:20.734Z,1.65
2018-09-27T11:15:51.192Z,1.60
2018-09-27T11:18:20.872Z,1.32
2018-09-27T11:20:51.543Z,1.80
2018-09-27T11:23:21.317Z,1.45
2018-09-27T11:25:50.919Z,1.52
2018-09-27T11:28:23.963Z,1.72
2018-09-27T11:31:01.014Z,1.80
2018-09-27T11:33:30.890Z,1.60
2018-09-27T11:36:00.403Z,1.95
2018-09-27T11:38:30.133Z,1.77
2018-09-27T11:41:00.724Z,1.90
2018-09-27T11:43:30.203Z,1.80
2018-09-27T11:46:01.521Z,1.60
2018-09-27T11:48:31.260Z,2.20
2018-09-27T11:51:01.037Z,1.82
2018-09-27T11:53:30.854Z,2.35
2018-09-27T11:56:00.980Z,2.47
2018-09-27T11:58:30.711Z,2.40
2018-09-27T12:01:00.511Z,2.08
2018-09-27T12:03:31.574Z,2.10
2018-09-27T12:06:01.560Z,2.22
2018-09-27T12:08:31.957Z,2.00
2018-09-27T12:11:01.439Z,1.98
2018-09-27T12:13:31.290Z,2.10
2018-09-27T12:16:01.248Z,2.00
2018-09-27T12:18:30.878Z,2.20
2018-09-27T12:21:00.486Z,2.05
2018-09-27T12:23:31.891Z,2.25
2018-09-27T12:26:02.983Z,2.17
2018-09-27T12:28:33.036Z,2.10
2018-09-27T12:31:03.931Z,1.72
2018-09-27T12:33:33.719Z,2.05
2018-09-27T12:36:03.711Z,1.75
2018-09-27T12:38:35.580Z,1.67
2018-09-27T12:41:06.647Z,1.57
2018-09-27T12:43:36.785Z,2.00
2018-09-27T12:46:10.173Z,2.33
2018-09-27T12:48:39.820Z,2.27
2018-09-27T12:51:09.680Z,2.25
2018-09-27T12:53:39.459Z,2.30
2018-09-27T12:56:09.190Z,1.92
2018-09-27T12:58:40.061Z,1.52
2018-09-27T13:01:14.811Z,1.60
2018-09-27T13:03:44.786Z,1.85
2018-09-27T13:06:17.580Z,1.80
2018-09-27T13:08:47.657Z,1.45
2018-09-27T13:11:27.813Z,1.62
2018-09-27T13:13:59.776Z,1.30
2018-09-27T13:16:29.525Z,2.42
2018-09-27T13:19:00.070Z,1.67
2018-09-27T13:21:29.949Z,1.50
2018-09-27T13:24:00.658Z,1.35
2018-09-27T13:26:30.989Z,1.30
2018-09-27T13:29:00.577Z,1.30
2018-09-27T13:31:30.442Z,1.30
2018-09-27T13:34:00.388Z,1.50
2018-09-27T13:36:30.751Z,1.30
2018-09-27T13:39:01.135Z,1.50
2018-09-27T13:41:31.067Z,1.10
2018-09-27T13:44:01.091Z,1.07
2018-09-27T13:46:32.779Z,0.90
2018-09-27T13:49:02.920Z,0.70
2018-09-27T13:51:33.673Z,0.53
2018-09-27T13:54:05.541Z,0.42
2018-09-27T13:56:35.359Z,0.60
2018-09-27T13:59:06.783Z,0.40
2018-09-27T14:01:37.332Z,0.30
2018-09-27T14:04:07.382Z,0.62
2018-09-27T14:06:36.838Z,0.47
2018-09-27T14:09:09.596Z,0.50
2018-09-27T14:11:39.688Z,0.37
2018-09-27T14:14:09.520Z,0.33
2018-09-27T14:16:39.338Z,0.45
2018-09-27T14:19:09.241Z,0.50
2018-09-27T14:21:39.709Z,0.30
2018-09-27T14:24:09.749Z,0.60
2018-09-27T14:26:39.376Z,0.50
2018-09-27T14:29:09.118Z,0.20
2018-09-27T14:31:38.590Z,0.35
2018-09-27T14:34:08.303Z,0.50
2018-09-27T14:36:38.123Z,0.35
2018-09-27T14:39:10.484Z,0.60
2018-09-27T14:41:40.541Z,0.30
2018-09-27T14:44:11.061Z,0.35
2018-09-27T14:46:40.845Z,0.23
2018-09-27T14:49:10.472Z,0.30
2018-09-27T14:51:39.913Z,0.40
2018-09-27T14:54:09.646Z,0.33
2018-09-27T14:56:39.209Z,0.20
2018-09-27T14:59:08.768Z,0.50
2018-09-27T15:01:38.275Z,0.40
2018-09-27T15:04:09.226Z,0.40
2018-09-27T15:06:38.866Z,0.50
2018-09-27T15:09:10.744Z,0.50
2018-09-27T15:11:40.354Z,0.35
2018-09-27T15:16:42.542Z,0.30
2018-09-27T15:19:12.113Z,0.28
2018-09-27T15:21:41.600Z,0.40
2018-09-27T15:24:11.611Z,0.28
2018-09-27T15:26:41.123Z,0.45
2018-09-27T15:29:11.086Z,0.47
2018-09-27T15:31:40.493Z,0.47
2018-09-27T15:34:09.961Z,0.50
2018-09-27T15:36:39.625Z,0.40
2018-09-27T15:39:09.574Z,0.50
2018-09-27T15:41:39.198Z,0.40
2018-09-27T15:44:08.880Z,0.40
2018-09-27T15:46:38.380Z,0.30
2018-09-27T15:49:07.960Z,0.40
2018-09-27T15:51:37.351Z,0.45
2018-09-27T15:54:07.487Z,0.23
2018-09-27T15:56:37.190Z,0.53
2018-09-27T15:59:08.125Z,0.50
2018-09-27T16:01:37.792Z,1.05
2018-09-27T16:04:07.483Z,0.60
2018-09-27T16:06:37.602Z,0.40
2018-09-27T16:09:09.991Z,0.55
2018-09-27T16:11:39.926Z,0.37
2018-09-27T16:14:09.535Z,0.35
2018-09-27T16:16:40.634Z,0.40
2018-09-27T16:19:10.592Z,0.23
2018-09-27T16:21:40.319Z,0.62
2018-09-27T16:24:09.877Z,0.60
2018-09-27T16:26:39.284Z,0.50
2018-09-27T16:29:09.272Z,0.50
2018-09-27T16:31:39.187Z,0.40
2018-09-27T16:34:08.917Z,0.30
2018-09-27T16:36:38.580Z,0.40
2018-09-27T16:39:10.016Z,0.47
2018-09-27T16:41:40.156Z,0.40
2018-09-27T16:44:10.233Z,0.45
2018-09-27T16:46:39.901Z,0.45
2018-09-27T16:49:09.456Z,0.78
2018-09-27T16:51:38.857Z,0.60
2018-09-27T16:54:08.631Z,0.62
2018-09-27T16:56:38.559Z,1.00
2018-09-27T16:59:08.251Z,0.70
2018-09-27T17:01:37.732Z,0.72
2018-09-27T17:04:07.343Z,1.00
2018-09-27T17:06:36.980Z,0.88
2018-09-27T17:09:11.332Z,1.10
2018-09-27T17:11:41.375Z,0.70
2018-09-27T17:14:12.087Z,0.90
2018-09-27T17:16:41.872Z,0.65
2018-09-27T17:19:12.013Z,0.95
2018-09-27T17:21:42.021Z,0.88
2018-09-27T17:24:12.630Z,0.70
2018-09-27T17:26:42.596Z,0.82
2018-09-27T17:29:12.727Z,1.17
2018-09-27T17:31:44.126Z,1.22
2018-09-27T17:34:14.952Z,1.10
2018-09-27T17:36:45.518Z,1.17
2018-09-27T17:39:16.530Z,0.62
2018-09-27T17:41:46.484Z,0.80
2018-09-27T17:44:18.253Z,1.27
2018-09-27T17:46:48.249Z,1.15
2018-09-27T17:49:19.263Z,1.25
2018-09-27T17:51:51.477Z,0.90
2018-09-27T17:54:22.931Z,0.93
2018-09-27T17:56:52.784Z,0.90
2018-09-27T17:59:23.091Z,1.02
2018-09-27T18:01:53.558Z,0.70
2018-09-27T18:04:26.078Z,0.85
2018-09-27T18:06:56.484Z,1.42
2018-09-27T18:09:30.010Z,0.90
2018-09-27T18:11:59.599Z,1.10
2018-09-27T18:14:29.316Z,1.27
2018-09-27T18:17:00.092Z,1.30
2018-09-27T18:19:30.221Z,1.22
2018-09-27T18:22:00.546Z,1.30
2018-09-27T18:24:30.406Z,0.95
2018-09-27T18:27:00.398Z,1.15
2018-09-27T18:29:30.805Z,1.10
2018-09-27T18:32:00.560Z,1.20
2018-09-27T18:34:30.452Z,1.20
2018-09-27T18:37:01.000Z,1.00
2018-09-27T18:39:30.796Z,0.85
2018-09-27T18:42:02.433Z,1.15
2018-09-27T18:44:33.200Z,0.70
2018-09-27T18:47:02.798Z,0.80
2018-09-27T18:49:33.280Z,1.07
2018-09-27T18:52:02.974Z,0.90
2018-09-27T18:54:32.834Z,0.80
2018-09-27T18:57:03.433Z,2.33
2018-09-27T18:59:33.223Z,1.90
2018-09-27T19:02:03.869Z,2.72
2018-09-27T19:04:34.046Z,2.27
2018-09-27T19:07:03.682Z,1.30
2018-09-27T19:09:34.238Z,1.50
2018-09-27T19:12:03.953Z,1.07
2018-09-27T19:14:34.447Z,1.10
2018-09-27T19:17:04.210Z,1.10
2018-09-27T19:19:33.797Z,0.90
2018-09-27T19:22:03.487Z,0.98
2018-09-27T19:24:34.464Z,1.10
2018-09-27T19:27:04.749Z,1.10
2018-09-27T19:29:38.716Z,0.95
2018-09-27T19:32:09.815Z,1.20
2018-09-27T19:34:39.668Z,1.40
2018-09-27T19:37:09.704Z,1.42
2018-09-27T19:39:40.362Z,1.27
2018-09-27T19:42:10.114Z,0.88
2018-09-27T19:44:40.699Z,1.20
2018-09-27T19:47:10.769Z,0.98
2018-09-27T19:49:41.554Z,0.80
2018-09-27T19:52:12.129Z,1.07
2018-09-27T19:54:42.169Z,1.60
2018-09-27T19:57:11.877Z,1.65
2018-09-27T19:59:42.092Z,1.70
2018-09-27T20:02:13.041Z,2.00
2018-09-27T20:04:42.799Z,1.50
2018-09-27T20:07:13.391Z,1.10
2018-09-27T20:09:43.270Z,1.20
2018-09-27T20:12:14.030Z,1.10
2018-09-27T20:14:44.958Z,1.10
2018-09-27T20:17:14.651Z,1.30
2018-09-27T20:19:44.471Z,1.10
2018-09-27T20:22:15.071Z,1.02
2018-09-27T20:24:44.701Z,1.10
2018-09-27T20:27:14.519Z,1.27
2018-09-27T20:29:44.285Z,1.40
2018-09-27T20:32:15.606Z,1.02
2018-09-27T20:34:45.540Z,1.05
2018-09-27T20:37:15.295Z,0.80
2018-09-27T20:39:46.841Z,1.10
2018-09-27T20:42:17.059Z,1.17
2018-09-27T20:44:46.634Z,1.17
2018-09-27T20:47:16.280Z,1.25
2018-09-27T20:49:46.981Z,0.95
2018-09-27T20:52:16.590Z,1.10
2018-09-27T20:54:46.919Z,1.17
2018-09-27T20:57:16.709Z,1.10
2018-09-27T20:59:46.934Z,1.35
2018-09-27T21:02:16.682Z,0.98
2018-09-27T21:04:46.465Z,1.25
2018-09-27T21:07:16.829Z,1.30
2018-09-27T21:09:46.497Z,1.20
2018-09-27T21:12:16.269Z,1.07
2018-09-27T21:14:46.048Z,1.00
2018-09-27T21:17:16.585Z,0.98
2018-09-27T21:19:46.496Z,1.25
2018-09-27T21:22:16.235Z,1.40
2018-09-27T21:24:45.954Z,1.10
2018-09-27T21:27:16.470Z,1.27
2018-09-27T21:29:46.629Z,1.35
2018-09-27T21:32:16.409Z,1.00
2018-09-27T21:34:46.737Z,1.10
2018-09-27T21:37:16.764Z,1.30
2018-09-27T21:39:46.394Z,1.12
2018-09-27T21:42:15.916Z,1.10
2018-09-27T21:44:45.686Z,1.30
2018-09-27T21:47:15.255Z,1.50
2018-09-27T21:49:45.203Z,1.27
2018-09-27T21:52:14.892Z,0.98
2018-09-27T21:54:44.717Z,1.00
2018-09-27T21:57:14.266Z,1.32
2018-09-27T21:59:44.085Z,1.25
2018-09-27T22:02:14.019Z,0.95
2018-09-27T22:04:43.773Z,0.90
2018-09-27T22:07:13.301Z,1.27
2018-09-27T22:09:43.275Z,1.15
2018-09-27T22:12:12.900Z,1.12
2018-09-27T22:14:43.101Z,1.00
2018-09-27T22:17:12.833Z,1.10
2018-09-27T22:19:43.394Z,0.70
2018-09-27T22:22:13.742Z,0.82
2018-09-27T22:24:43.933Z,1.30
2018-09-27T22:27:13.490Z,1.05
2018-09-27T22:29:43.364Z,1.30
2018-09-27T22:32:12.968Z,1.50
2018-09-27T22:34:42.806Z,1.00
2018-09-27T22:37:12.983Z,0.93
2018-09-27T22:39:42.897Z,1.37
2018-09-27T22:42:12.717Z,1.27
2018-09-27T22:44:42.602Z,1.27
2018-09-27T22:47:12.081Z,0.93
2018-09-27T22:49:41.702Z,1.25
2018-09-27T22:52:11.287Z,1.05
2018-09-27T22:54:41.278Z,1.30
2018-09-27T22:57:10.912Z,0.90
2018-09-27T22:59:40.980Z,0.93
2018-09-27T23:02:10.615Z,1.12
2018-09-27T23:04:40.372Z,1.00
2018-09-27T23:07:10.081Z,1.10
2018-09-27T23:09:39.800Z,1.37
2018-09-27T23:12:09.337Z,1.27
2018-09-27T23:14:40.036Z,1.12
2018-09-27T23:17:09.825Z,1.15
2018-09-27T23:19:39.367Z,1.22
2018-09-27T23:22:09.232Z,1.35
2018-09-27T23:24:38.834Z,1.20
2018-09-27T23:27:08.698Z,1.30
2018-09-27T23:29:39.012Z,1.40
2018-09-27T23:32:08.646Z,1.37
2018-09-27T23:34:38.211Z,1.42
2018-09-27T23:37:08.252Z,0.93
2018-09-27T23:39:37.841Z,1.30
2018-09-27T23:42:07.377Z,1.20
2018-09-27T23:44:37.021Z,1.20
2018-09-27T23:47:07.215Z,1.15
2018-09-27T23:49:36.858Z,1.20
2018-09-27T23:52:07.360Z,1.30
2018-09-27T23:54:36.876Z,1.65
2018-09-27T23:57:06.664Z,1.20
2018-09-27T23:59:37.599Z,1.30
